Time;durP1;ratioP1;P1;durP2;ratioP2;P2;SDS_P1;SDS_P2;PMS_P1;PMS_P2;Temp;Humidity;BMP_temperature;BMP_pressure;BME280_temperature;BME280_humidity;BME280_pressure;Samples;Min_cycle;Max_cycle;Signal;HPM_P1;HPM_P2
2024/03/11 00:01:06;;;;;;;43.97;27.98;;;;;;;;;;5050995;28;20189;-72
2024/03/11 00:03:32;;;;;;;42.50;27.75;;;;;;;;;;5074756;28;20200;-73
2024/03/11 00:05:58;;;;;;;42.00;28.00;;;;;;;;;;5069011;28;20215;-73
2024/03/11 00:08:25;;;;;;;43.78;27.95;;;;;;;;;;5064070;28;20220;-73
2024/03/11 00:10:55;;;;;;;40.78;25.63;;;;;;;;;;5081658;28;20211;-73
2024/03/11 00:13:22;;;;;;;41.83;27.95;;;;;;;;;;5079394;28;20643;-73
2024/03/11 00:15:50;;;;;;;46.33;28.88;;;;;;;;;;5078877;28;20184;-73
2024/03/11 00:18:18;;;;;;;42.03;26.85;;;;;;;;;;5076338;28;20227;-73
2024/03/11 00:20:46;;;;;;;41.10;27.58;;;;;;;;;;5053938;28;20190;-73
2024/03/11 00:23:13;;;;;;;42.53;27.20;;;;;;;;;;5071486;28;20204;-74
2024/03/11 00:25:39;;;;;;;41.85;27.77;;;;;;;;;;5070397;28;20208;-73
2024/03/11 00:28:05;;;;;;;42.38;28.05;;;;;;;;;;5069123;28;20196;-72
2024/03/11 00:30:31;;;;;;;39.67;27.13;;;;;;;;;;5074159;28;20196;-74
2024/03/11 00:32:58;;;;;;;44.50;27.77;;;;;;;;;;5071816;28;20216;-74
2024/03/11 00:35:24;;;;;;;43.90;27.35;;;;;;;;;;5045467;28;20299;-74
2024/03/11 00:37:50;;;;;;;44.17;27.77;;;;;;;;;;5065192;28;20216;-74
2024/03/11 00:40:15;;;;;;;44.55;28.60;;;;;;;;;;5060174;28;20273;-74
2024/03/11 00:42:41;;;;;;;40.90;26.55;;;;;;;;;;5066019;28;20262;-73
2024/03/11 00:45:11;;;;;;;41.72;27.48;;;;;;;;;;5068539;28;20193;-73
2024/03/11 00:47:39;;;;;;;42.20;27.83;;;;;;;;;;5056964;28;20217;-72
2024/03/11 00:50:06;;;;;;;41.75;26.92;;;;;;;;;;5077283;28;20211;-73
2024/03/11 00:52:33;;;;;;;43.75;28.30;;;;;;;;;;5069084;28;20189;-73
2024/03/11 00:54:59;;;;;;;42.88;27.20;;;;;;;;;;5067379;28;20181;-73
2024/03/11 00:57:25;;;;;;;41.60;28.02;;;;;;;;;;5052074;28;20188;-73
2024/03/11 00:59:51;;;;;;;43.22;27.55;;;;;;;;;;5077420;28;20192;-74
2024/03/11 01:02:16;;;;;;;43.13;28.58;;;;;;;;;;5057999;28;20231;-72
2024/03/11 01:04:42;;;;;;;42.15;27.73;;;;;;;;;;5047265;28;20177;-73
2024/03/11 01:07:08;;;;;;;41.50;27.73;;;;;;;;;;5070129;28;20220;-74
2024/03/11 01:09:33;;;;;;;39.80;26.73;;;;;;;;;;5070130;28;20242;-73
2024/03/11 01:11:59;;;;;;;41.47;26.95;;;;;;;;;;5071420;28;20201;-73
2024/03/11 01:14:25;;;;;;;42.72;27.05;;;;;;;;;;5050028;28;20271;-73
2024/03/11 01:16:51;;;;;;;40.53;26.58;;;;;;;;;;5058590;28;20338;-73
2024/03/11 01:19:20;;;;;;;40.45;27.20;;;;;;;;;;5046325;28;20242;-74
2024/03/11 01:21:48;;;;;;;41.28;26.50;;;;;;;;;;5068449;28;20193;-76
2024/03/11 01:24:13;;;;;;;46.67;27.35;;;;;;;;;;5062426;28;20220;-73
2024/03/11 01:26:39;;;;;;;44.42;27.33;;;;;;;;;;5074151;28;20205;-73
2024/03/11 01:29:04;;;;;;;38.63;26.25;;;;;;;;;;5063712;28;20267;-72
2024/03/11 01:31:31;;;;;;;39.80;26.65;;;;;;;;;;5066627;28;20186;-73
2024/03/11 01:33:57;;;;;;;42.88;26.42;;;;;;;;;;5067437;28;20660;-73
2024/03/11 01:36:22;;;;;;;43.13;26.48;;;;;;;;;;5066399;28;20223;-72
2024/03/11 01:38:48;;;;;;;38.85;25.52;;;;;;;;;;5067552;28;20200;-72
2024/03/11 01:41:18;;;;;;;40.00;25.52;;;;;;;;;;5075296;28;20549;-74
2024/03/11 01:43:45;;;;;;;40.58;25.70;;;;;;;;;;5052875;28;20238;-73
2024/03/11 01:46:11;;;;;;;41.25;26.55;;;;;;;;;;5067400;28;20219;-73
2024/03/11 01:48:37;;;;;;;40.78;26.17;;;;;;;;;;5065710;28;20174;-73
2024/03/11 01:51:04;;;;;;;42.75;26.92;;;;;;;;;;5059033;28;20192;-73
2024/03/11 01:53:30;;;;;;;38.38;25.65;;;;;;;;;;5055625;28;20639;-73
2024/03/11 01:55:56;;;;;;;42.47;27.10;;;;;;;;;;5063621;28;20283;-74
2024/03/11 01:58:23;;;;;;;41.15;25.55;;;;;;;;;;5057931;28;20599;-73
2024/03/11 02:00:48;;;;;;;38.17;25.65;;;;;;;;;;5071650;28;20334;-73
2024/03/11 02:03:14;;;;;;;41.60;25.63;;;;;;;;;;5074702;28;20216;-73
2024/03/11 02:05:41;;;;;;;42.75;25.67;;;;;;;;;;5067808;28;20282;-73
2024/03/11 02:08:07;;;;;;;39.97;25.13;;;;;;;;;;5065549;28;20280;-74
2024/03/11 02:10:33;;;;;;;40.35;25.35;;;;;;;;;;5062573;28;20271;-73
2024/03/11 02:13:00;;;;;;;36.85;24.45;;;;;;;;;;5067990;28;20208;-74
2024/03/11 02:15:26;;;;;;;38.17;24.77;;;;;;;;;;5055383;28;20279;-72
2024/03/11 02:17:53;;;;;;;40.78;26.10;;;;;;;;;;5070373;28;20192;-73
2024/03/11 02:20:21;;;;;;;41.30;25.52;;;;;;;;;;5074681;28;20254;-73
2024/03/11 02:22:52;;;;;;;39.03;25.25;;;;;;;;;;5075925;28;20189;-73
2024/03/11 02:25:20;;;;;;;40.67;25.90;;;;;;;;;;5067548;28;20237;-73
2024/03/11 02:27:47;;;;;;;40.70;25.95;;;;;;;;;;5062301;28;20208;-73
2024/03/11 02:30:15;;;;;;;42.65;25.80;;;;;;;;;;5058021;28;20193;-73
2024/03/11 02:32:41;;;;;;;38.88;25.38;;;;;;;;;;5062245;28;20275;-73
2024/03/11 02:35:07;;;;;;;42.45;26.10;;;;;;;;;;5057804;28;20355;-73
2024/03/11 02:37:33;;;;;;;41.53;26.27;;;;;;;;;;5066090;28;20628;-73
2024/03/11 02:40:00;;;;;;;41.83;26.15;;;;;;;;;;5058019;28;20253;-73
2024/03/11 02:42:25;;;;;;;40.22;24.73;;;;;;;;;;5067218;28;20204;-73
2024/03/11 02:44:53;;;;;;;43.30;25.55;;;;;;;;;;5063928;28;20189;-73
2024/03/11 02:47:19;;;;;;;43.75;25.73;;;;;;;;;;5063423;28;20673;-73
2024/03/11 02:49:44;;;;;;;38.50;25.40;;;;;;;;;;5051365;28;20195;-72
2024/03/11 02:52:10;;;;;;;38.22;24.70;;;;;;;;;;5068933;28;20216;-72
2024/03/11 02:54:37;;;;;;;39.47;24.55;;;;;;;;;;5049918;28;20284;-72
2024/03/11 02:57:03;;;;;;;42.20;25.50;;;;;;;;;;5062812;28;20186;-72
2024/03/11 02:59:28;;;;;;;43.58;25.42;;;;;;;;;;5059717;28;20587;-72
2024/03/11 03:01:54;;;;;;;42.35;25.60;;;;;;;;;;5072980;28;20272;-73
2024/03/11 03:04:20;;;;;;;42.10;25.00;;;;;;;;;;5068958;28;20270;-73
2024/03/11 03:06:45;;;;;;;39.65;24.70;;;;;;;;;;5066897;28;20250;-73
2024/03/11 03:09:11;;;;;;;40.58;25.90;;;;;;;;;;5053475;28;20203;-73
2024/03/11 03:11:37;;;;;;;41.17;26.10;;;;;;;;;;5059425;28;20449;-72
2024/03/11 03:14:03;;;;;;;40.58;25.30;;;;;;;;;;5062495;28;20224;-72
2024/03/11 03:16:28;;;;;;;41.55;26.05;;;;;;;;;;5069456;28;20228;-72
2024/03/11 03:18:54;;;;;;;40.47;23.98;;;;;;;;;;5067610;28;20200;-72
2024/03/11 03:21:21;;;;;;;42.05;26.05;;;;;;;;;;5070133;28;20283;-73
2024/03/11 03:23:47;;;;;;;39.50;25.40;;;;;;;;;;5070624;28;20185;-73
2024/03/11 03:26:13;;;;;;;39.33;26.00;;;;;;;;;;5072753;28;20229;-73
2024/03/11 03:28:38;;;;;;;42.63;24.92;;;;;;;;;;5067359;28;20194;-72
2024/03/11 03:31:05;;;;;;;41.03;24.98;;;;;;;;;;5069665;28;20632;-72
2024/03/11 03:33:30;;;;;;;41.25;25.55;;;;;;;;;;5073233;28;20188;-72
2024/03/11 03:35:56;;;;;;;38.53;24.77;;;;;;;;;;5070260;28;20250;-73
2024/03/11 03:38:21;;;;;;;39.85;25.02;;;;;;;;;;5070591;28;20215;-73
2024/03/11 03:40:47;;;;;;;41.13;25.67;;;;;;;;;;5072449;28;20212;-73
2024/03/11 03:43:13;;;;;;;41.83;24.33;;;;;;;;;;5063999;28;20189;-73
2024/03/11 03:45:38;;;;;;;41.95;25.35;;;;;;;;;;5069332;28;20197;-73
2024/03/11 03:48:04;;;;;;;41.83;25.23;;;;;;;;;;5071801;28;20633;-72
2024/03/11 03:50:30;;;;;;;42.30;25.73;;;;;;;;;;5068538;28;20181;-72
2024/03/11 03:52:55;;;;;;;43.90;26.48;;;;;;;;;;5071404;28;20242;-73
2024/03/11 03:55:23;;;;;;;42.53;26.08;;;;;;;;;;5061381;28;20490;-72
2024/03/11 03:57:49;;;;;;;41.30;25.98;;;;;;;;;;5070860;28;20222;-74
2024/03/11 04:00:15;;;;;;;41.55;26.77;;;;;;;;;;5067418;28;20188;-73
2024/03/11 04:02:47;;;;;;;44.92;26.38;;;;;;;;;;5053057;28;20212;-73
2024/03/11 04:05:13;;;;;;;45.00;26.65;;;;;;;;;;5062639;28;20189;-73
2024/03/11 04:07:42;;;;;;;45.10;27.73;;;;;;;;;;5052749;28;20213;-72
2024/03/11 04:10:12;;;;;;;47.90;28.90;;;;;;;;;;5059737;28;20196;-73
2024/03/11 04:12:44;;;;;;;41.92;27.00;;;;;;;;;;5069868;28;20263;-73
2024/03/11 04:15:12;;;;;;;43.75;27.00;;;;;;;;;;5063083;28;20185;-73
2024/03/11 04:17:41;;;;;;;45.55;27.85;;;;;;;;;;5063575;28;20237;-73
2024/03/11 04:20:11;;;;;;;46.55;28.85;;;;;;;;;;5069367;28;20604;-74
2024/03/11 04:22:49;;;;;;;48.13;29.00;;;;;;;;;;5058403;28;20208;-73
2024/03/11 04:25:21;;;;;;;47.75;29.00;;;;;;;;;;5076383;28;20568;-73
2024/03/11 04:27:47;;;;;;;46.30;28.17;;;;;;;;;;5065110;28;20247;-73
2024/03/11 04:30:19;;;;;;;48.92;29.33;;;;;;;;;;5050181;28;20268;-73
2024/03/11 04:32:51;;;;;;;49.22;28.67;;;;;;;;;;5061972;28;20193;-74
2024/03/11 04:35:24;;;;;;;47.13;29.05;;;;;;;;;;5067473;28;20225;-73
2024/03/11 04:38:00;;;;;;;54.40;30.08;;;;;;;;;;5064926;28;20272;-73
2024/03/11 04:40:27;;;;;;;54.05;30.63;;;;;;;;;;5070584;28;20185;-74
2024/03/11 04:42:54;;;;;;;54.58;31.92;;;;;;;;;;5071030;28;20197;-73
2024/03/11 04:45:20;;;;;;;53.50;31.25;;;;;;;;;;5069292;28;20188;-73
2024/03/11 04:47:46;;;;;;;55.25;32.10;;;;;;;;;;5058430;28;20334;-74
2024/03/11 04:50:12;;;;;;;54.65;31.58;;;;;;;;;;5055224;28;20365;-74
2024/03/11 04:52:38;;;;;;;53.90;31.88;;;;;;;;;;5062484;28;20177;-73
2024/03/11 04:55:06;;;;;;;54.55;31.98;;;;;;;;;;5076341;28;20198;-74
2024/03/11 04:57:32;;;;;;;53.80;32.15;;;;;;;;;;5058379;28;20705;-74
2024/03/11 04:59:57;;;;;;;55.28;32.55;;;;;;;;;;5066402;28;20209;-74
2024/03/11 05:02:23;;;;;;;59.45;32.85;;;;;;;;;;5069590;28;20184;-74
2024/03/11 05:04:48;;;;;;;58.35;32.38;;;;;;;;;;5055584;28;20185;-74
2024/03/11 05:07:14;;;;;;;54.13;31.92;;;;;;;;;;5077069;28;20200;-74
2024/03/11 05:09:40;;;;;;;57.03;34.72;;;;;;;;;;5062692;28;20181;-73
2024/03/11 05:12:06;;;;;;;54.13;31.88;;;;;;;;;;5062627;28;20189;-74
2024/03/11 05:14:32;;;;;;;55.33;31.65;;;;;;;;;;5068894;28;20245;-74
2024/03/11 05:16:57;;;;;;;54.00;31.77;;;;;;;;;;5073695;28;20256;-74
2024/03/11 05:19:22;;;;;;;58.55;34.10;;;;;;;;;;5050973;28;20220;-73
2024/03/11 05:21:48;;;;;;;58.72;33.05;;;;;;;;;;5067040;28;20542;-73
2024/03/11 05:24:13;;;;;;;56.83;33.13;;;;;;;;;;5069197;28;20294;-73
2024/03/11 05:26:39;;;;;;;56.72;33.17;;;;;;;;;;5075744;28;20386;-73
2024/03/11 05:29:04;;;;;;;56.22;32.00;;;;;;;;;;5058920;28;20189;-74
2024/03/11 05:31:31;;;;;;;59.35;32.65;;;;;;;;;;5067931;28;20413;-75
2024/03/11 05:33:56;;;;;;;56.95;32.33;;;;;;;;;;5056446;28;20632;-74
2024/03/11 05:36:22;;;;;;;54.42;32.38;;;;;;;;;;5064562;28;20300;-74
2024/03/11 05:38:47;;;;;;;55.50;32.45;;;;;;;;;;5060649;28;20555;-74
2024/03/11 05:41:13;;;;;;;68.60;34.97;;;;;;;;;;5048939;28;20181;-74
2024/03/11 05:43:40;;;;;;;61.38;34.88;;;;;;;;;;5055193;28;20617;-74
2024/03/11 05:46:05;;;;;;;62.10;34.83;;;;;;;;;;5067768;28;20522;-75
2024/03/11 05:48:32;;;;;;;59.28;33.30;;;;;;;;;;5064334;28;20199;-74
2024/03/11 05:51:02;;;;;;;58.97;33.70;;;;;;;;;;5058153;28;20196;-74
2024/03/11 05:53:33;;;;;;;61.35;34.55;;;;;;;;;;5069055;28;20208;-74
2024/03/11 05:55:59;;;;;;;62.40;34.28;;;;;;;;;;5067801;28;20547;-73
2024/03/11 05:58:28;;;;;;;63.80;36.03;;;;;;;;;;5063192;28;20185;-73
2024/03/11 06:00:54;;;;;;;65.38;35.28;;;;;;;;;;5065699;28;20610;-73
2024/03/11 06:03:19;;;;;;;64.07;35.20;;;;;;;;;;5069180;28;20216;-73
2024/03/11 06:05:48;;;;;;;62.17;34.45;;;;;;;;;;5067654;28;20675;-73
2024/03/11 06:08:14;;;;;;;61.28;34.65;;;;;;;;;;5063958;28;20726;-73
2024/03/11 06:10:40;;;;;;;64.40;36.70;;;;;;;;;;5066308;28;20212;-73
2024/03/11 06:13:06;;;;;;;63.90;34.65;;;;;;;;;;5056574;28;20278;-73
2024/03/11 06:15:32;;;;;;;59.58;33.97;;;;;;;;;;5068154;28;20299;-73
2024/03/11 06:17:57;;;;;;;61.55;34.10;;;;;;;;;;5064290;28;20272;-73
2024/03/11 06:20:23;;;;;;;57.72;32.80;;;;;;;;;;5061877;28;20311;-73
2024/03/11 06:22:49;;;;;;;61.92;33.25;;;;;;;;;;5062640;28;20246;-73
2024/03/11 06:25:15;;;;;;;60.03;33.70;;;;;;;;;;5069466;28;20196;-73
2024/03/11 06:27:41;;;;;;;63.25;33.78;;;;;;;;;;5068380;28;20212;-73
2024/03/11 06:30:07;;;;;;;58.63;33.33;;;;;;;;;;5061701;28;20188;-73
2024/03/11 06:32:34;;;;;;;59.78;32.17;;;;;;;;;;5063532;28;20280;-73
2024/03/11 06:35:00;;;;;;;58.60;33.40;;;;;;;;;;5055102;28;20633;-73
2024/03/11 06:37:26;;;;;;;61.70;33.47;;;;;;;;;;5061748;28;20252;-73
2024/03/11 06:39:52;;;;;;;55.90;31.63;;;;;;;;;;5073619;28;20264;-73
2024/03/11 06:42:17;;;;;;;58.45;31.80;;;;;;;;;;5064595;28;20199;-73
2024/03/11 06:44:43;;;;;;;56.38;30.80;;;;;;;;;;5061510;28;20256;-73
2024/03/11 06:47:08;;;;;;;58.03;31.80;;;;;;;;;;5061868;28;20193;-73
2024/03/11 06:49:34;;;;;;;60.42;32.17;;;;;;;;;;5059834;28;20181;-73
2024/03/11 06:52:00;;;;;;;53.80;31.55;;;;;;;;;;5066332;28;20185;-74
2024/03/11 06:54:26;;;;;;;49.03;29.05;;;;;;;;;;5074205;28;20284;-73
2024/03/11 06:56:51;;;;;;;51.25;27.83;;;;;;;;;;5075725;28;20245;-74
2024/03/11 06:59:16;;;;;;;52.85;29.38;;;;;;;;;;5069295;28;20189;-73
2024/03/11 07:01:42;;;;;;;57.67;30.45;;;;;;;;;;5082938;28;20198;-73
2024/03/11 07:04:11;;;;;;;52.95;28.88;;;;;;;;;;5077228;28;20210;-74
2024/03/11 07:06:39;;;;;;;53.17;29.30;;;;;;;;;;5062317;28;20554;-74
2024/03/11 07:09:05;;;;;;;51.35;29.27;;;;;;;;;;5059163;28;20604;-74
2024/03/11 07:11:30;;;;;;;50.33;28.65;;;;;;;;;;5067737;28;20258;-74
2024/03/11 07:13:56;;;;;;;49.70;28.83;;;;;;;;;;5061872;28;20231;-74
2024/03/11 07:16:22;;;;;;;48.47;28.83;;;;;;;;;;5070818;28;20188;-74
2024/03/11 07:18:52;;;;;;;53.70;28.77;;;;;;;;;;5071127;28;20271;-75
2024/03/11 07:21:17;;;;;;;50.00;28.40;;;;;;;;;;5053321;28;20194;-74
2024/03/11 07:23:43;;;;;;;47.33;28.30;;;;;;;;;;5065779;28;20263;-74
2024/03/11 07:26:10;;;;;;;46.67;26.95;;;;;;;;;;5074596;28;20254;-74
2024/03/11 07:28:36;;;;;;;44.78;26.92;;;;;;;;;;5073687;28;20279;-74
2024/03/11 07:31:01;;;;;;;46.10;26.55;;;;;;;;;;5074749;28;20276;-74
2024/03/11 07:33:26;;;;;;;52.17;27.45;;;;;;;;;;5065285;28;20252;-74
2024/03/11 07:35:53;;;;;;;47.03;25.98;;;;;;;;;;5069653;28;20301;-74
2024/03/11 07:38:19;;;;;;;53.22;28.05;;;;;;;;;;5060387;28;20701;-75
2024/03/11 07:40:45;;;;;;;44.22;26.27;;;;;;;;;;5074009;28;20189;-74
2024/03/11 07:43:11;;;;;;;49.75;27.10;;;;;;;;;;5077803;28;20502;-73
2024/03/11 07:45:38;;;;;;;45.20;26.38;;;;;;;;;;5072253;28;20205;-73
2024/03/11 07:48:12;;;;;;;48.05;27.23;;;;;;;;;;5074147;28;20267;-72
2024/03/11 07:50:38;;;;;;;46.05;26.52;;;;;;;;;;5063792;28;20248;-72
2024/03/11 07:53:05;;;;;;;51.65;28.17;;;;;;;;;;5068486;28;20583;-72
2024/03/11 07:55:31;;;;;;;51.45;28.67;;;;;;;;;;5071131;28;20265;-73
2024/03/11 07:57:56;;;;;;;44.03;26.23;;;;;;;;;;5071755;28;20181;-73
2024/03/11 08:00:29;;;;;;;47.55;26.88;;;;;;;;;;5078176;28;20242;-73
2024/03/11 08:02:55;;;;;;;49.95;28.40;;;;;;;;;;5065373;28;20721;-72
2024/03/11 08:05:22;;;;;;;48.67;28.25;;;;;;;;;;5070869;28;20246;-73
2024/03/11 08:07:49;;;;;;;46.35;27.42;;;;;;;;;;5062098;28;20300;-73
2024/03/11 08:10:15;;;;;;;45.35;26.98;;;;;;;;;;5064591;28;20180;-73
2024/03/11 08:12:43;;;;;;;52.60;27.92;;;;;;;;;;5065754;28;20250;-74
2024/03/11 08:15:12;;;;;;;45.78;27.17;;;;;;;;;;5070632;28;20193;-74
2024/03/11 08:17:43;;;;;;;48.47;28.45;;;;;;;;;;5069797;28;20263;-74
2024/03/11 08:20:10;;;;;;;50.83;27.67;;;;;;;;;;5069752;28;20310;-74
2024/03/11 08:22:43;;;;;;;48.92;28.00;;;;;;;;;;5066904;28;20203;-74
2024/03/11 08:25:11;;;;;;;49.33;27.48;;;;;;;;;;5066179;28;20188;-74
2024/03/11 08:27:37;;;;;;;50.97;28.17;;;;;;;;;;5067677;28;20308;-75
2024/03/11 08:30:04;;;;;;;52.28;28.92;;;;;;;;;;5065696;28;20193;-74
2024/03/11 08:32:30;;;;;;;49.70;29.42;;;;;;;;;;5069325;28;20535;-75
2024/03/11 08:34:55;;;;;;;47.90;27.23;;;;;;;;;;5062885;28;20227;-74
2024/03/11 08:37:21;;;;;;;51.35;28.85;;;;;;;;;;5053288;28;20185;-75
2024/03/11 08:39:47;;;;;;;53.47;30.10;;;;;;;;;;5064655;28;20204;-75
2024/03/11 08:42:13;;;;;;;49.65;28.05;;;;;;;;;;5061025;28;20189;-75
2024/03/11 08:44:39;;;;;;;49.60;28.95;;;;;;;;;;5069630;28;20180;-75
2024/03/11 08:47:06;;;;;;;49.65;27.30;;;;;;;;;;5063914;28;20280;-75
2024/03/11 08:49:33;;;;;;;51.55;29.27;;;;;;;;;;5064990;28;20193;-74
2024/03/11 08:52:00;;;;;;;50.63;28.80;;;;;;;;;;5063070;28;20472;-75
2024/03/11 08:54:28;;;;;;;48.95;29.40;;;;;;;;;;5067006;28;20192;-75
2024/03/11 08:56:56;;;;;;;53.05;29.90;;;;;;;;;;5070007;28;20203;-75
2024/03/11 08:59:23;;;;;;;56.05;30.70;;;;;;;;;;5061026;28;20602;-75
2024/03/11 09:01:49;;;;;;;52.17;30.08;;;;;;;;;;5068532;28;20616;-74
2024/03/11 09:04:15;;;;;;;55.72;30.02;;;;;;;;;;5070848;28;20644;-74
2024/03/11 09:06:43;;;;;;;54.20;30.88;;;;;;;;;;5070176;28;20430;-75
2024/03/11 09:09:09;;;;;;;53.07;29.63;;;;;;;;;;5049072;28;20229;-75
2024/03/11 09:11:34;;;;;;;51.60;30.60;;;;;;;;;;5067971;28;20279;-76
2024/03/11 09:14:00;;;;;;;53.40;29.65;;;;;;;;;;5068671;28;20187;-75
2024/03/11 09:16:27;;;;;;;51.47;29.10;;;;;;;;;;5048989;28;20212;-75
2024/03/11 09:18:53;;;;;;;54.47;30.30;;;;;;;;;;5070076;28;20211;-76
2024/03/11 09:21:21;;;;;;;55.85;29.40;;;;;;;;;;5071128;28;20185;-76
2024/03/11 09:23:48;;;;;;;54.95;31.52;;;;;;;;;;5067652;28;20258;-75
2024/03/11 09:26:13;;;;;;;55.08;30.58;;;;;;;;;;5070146;28;20228;-75
2024/03/11 09:28:38;;;;;;;53.55;30.58;;;;;;;;;;5068670;28;20520;-75
2024/03/11 09:31:04;;;;;;;52.28;29.50;;;;;;;;;;5058810;28;20201;-74
2024/03/11 09:33:29;;;;;;;52.78;30.00;;;;;;;;;;5069830;28;20177;-75
2024/03/11 09:35:55;;;;;;;56.53;32.20;;;;;;;;;;5065865;28;20229;-75
2024/03/11 09:38:21;;;;;;;53.63;31.42;;;;;;;;;;5070600;28;20385;-75
2024/03/11 09:40:47;;;;;;;55.20;30.90;;;;;;;;;;5069234;28;20240;-75
2024/03/11 09:43:17;;;;;;;55.72;31.45;;;;;;;;;;5049959;28;20763;-74
2024/03/11 09:45:44;;;;;;;53.60;30.48;;;;;;;;;;5070391;28;20237;-74
2024/03/11 09:48:10;;;;;;;53.50;30.33;;;;;;;;;;5069505;28;20276;-74
2024/03/11 09:50:37;;;;;;;56.92;31.85;;;;;;;;;;5069916;28;20644;-74
2024/03/11 09:53:06;;;;;;;54.65;31.67;;;;;;;;;;5081254;28;20189;-73
2024/03/11 09:55:33;;;;;;;49.72;29.90;;;;;;;;;;5085900;28;20710;-73
2024/03/11 09:58:13;;;;;;;56.60;30.85;;;;;;;;;;5064707;28;20692;-74
2024/03/11 10:00:49;;;;;;;60.10;31.95;;;;;;;;;;5068901;28;20181;-73
2024/03/11 10:03:21;;;;;;;53.80;29.55;;;;;;;;;;5064197;28;20657;-74
2024/03/11 10:05:58;;;;;;;48.30;29.02;;;;;;;;;;5068709;28;20231;-73
2024/03/11 10:08:26;;;;;;;51.47;28.85;;;;;;;;;;5070536;28;20203;-73
2024/03/11 10:11:13;;;;;;;49.45;28.50;;;;;;;;;;5059753;28;20220;-73
2024/03/11 10:13:39;;;;;;;45.08;27.52;;;;;;;;;;5059975;28;20626;-73
2024/03/11 10:16:16;;;;;;;48.55;28.42;;;;;;;;;;5068857;28;20220;-73
2024/03/11 10:19:13;;;;;;;48.90;28.63;;;;;;;;;;5068076;28;20255;-73
2024/03/11 10:21:40;;;;;;;50.60;28.38;;;;;;;;;;5067615;28;20188;-73
2024/03/11 10:24:08;;;;;;;54.05;29.08;;;;;;;;;;5084893;28;20219;-73
2024/03/11 10:26:36;;;;;;;51.88;28.10;;;;;;;;;;5069670;28;20238;-73
2024/03/11 10:29:02;;;;;;;44.80;27.35;;;;;;;;;;5057899;28;20189;-73
2024/03/11 10:31:31;;;;;;;50.00;27.52;;;;;;;;;;5070276;28;20192;-74
2024/03/11 10:34:13;;;;;;;49.08;28.20;;;;;;;;;;5069927;28;20223;-73
2024/03/11 10:36:49;;;;;;;46.20;27.17;;;;;;;;;;5062671;28;20737;-73
2024/03/11 10:41:50;;;;;;;49.17;29.85;;;;;;;;;;5068765;28;20192;-73
2024/03/11 10:44:29;;;;;;;44.53;27.25;;;;;;;;;;5073593;28;20190;-74
2024/03/11 10:47:02;;;;;;;45.65;27.67;;;;;;;;;;5076003;28;20224;-74
2024/03/11 10:49:28;;;;;;;46.65;27.48;;;;;;;;;;5077701;28;20224;-73
2024/03/11 10:51:58;;;;;;;44.00;28.23;;;;;;;;;;5075038;28;20220;-74
2024/03/11 10:54:28;;;;;;;47.75;28.45;;;;;;;;;;5066746;28;20189;-74
2024/03/11 10:56:55;;;;;;;43.92;27.60;;;;;;;;;;5069781;28;20187;-74
2024/03/11 10:59:22;;;;;;;46.03;27.40;;;;;;;;;;5061234;28;20220;-73
2024/03/11 11:01:57;;;;;;;51.50;28.45;;;;;;;;;;5066460;28;20189;-74
2024/03/11 11:04:28;;;;;;;45.40;27.40;;;;;;;;;;5068480;28;20186;-74
2024/03/11 11:06:58;;;;;;;47.75;28.27;;;;;;;;;;5059673;28;20212;-73
2024/03/11 11:09:24;;;;;;;43.65;27.20;;;;;;;;;;5067226;28;20728;-73
2024/03/11 11:11:51;;;;;;;46.10;27.35;;;;;;;;;;5067678;28;20209;-73
2024/03/11 11:14:18;;;;;;;46.40;28.13;;;;;;;;;;5067042;28;20246;-75
2024/03/11 11:16:45;;;;;;;52.40;28.60;;;;;;;;;;5065719;28;20193;-73
2024/03/11 11:19:22;;;;;;;48.67;28.77;;;;;;;;;;5043667;28;20216;-73
2024/03/11 11:21:48;;;;;;;48.17;28.80;;;;;;;;;;5068368;28;20560;-73
2024/03/11 11:24:39;;;;;;;47.67;27.77;;;;;;;;;;5065609;28;20245;-74
2024/03/11 11:27:06;;;;;;;48.67;29.17;;;;;;;;;;5058707;28;20230;-74
2024/03/11 11:29:32;;;;;;;49.38;29.77;;;;;;;;;;5069341;28;20558;-73
2024/03/11 11:32:11;;;;;;;45.63;29.20;;;;;;;;;;5066332;28;20189;-73
2024/03/11 11:34:45;;;;;;;49.50;29.48;;;;;;;;;;5067744;28;20223;-73
2024/03/11 11:37:21;;;;;;;47.15;29.45;;;;;;;;;;5068087;28;20195;-73
2024/03/11 11:39:46;;;;;;;51.88;28.63;;;;;;;;;;5072650;28;20238;-74
2024/03/11 11:42:34;;;;;;;49.40;27.77;;;;;;;;;;5072032;28;20633;-73
2024/03/11 11:44:59;;;;;;;45.53;28.02;;;;;;;;;;5076291;28;20212;-73
2024/03/11 11:47:27;;;;;;;48.75;28.50;;;;;;;;;;5069895;28;20639;-73
2024/03/11 11:49:53;;;;;;;49.75;29.65;;;;;;;;;;5064979;28;20185;-73
2024/03/11 11:52:18;;;;;;;47.97;30.38;;;;;;;;;;5057745;28;20208;-74
2024/03/11 11:54:46;;;;;;;48.58;28.90;;;;;;;;;;5068882;28;20213;-73
2024/03/11 11:57:17;;;;;;;43.38;27.90;;;;;;;;;;5051007;28;20547;-73
2024/03/11 11:59:55;;;;;;;47.03;28.42;;;;;;;;;;5067197;28;20912;-73
2024/03/11 12:02:22;;;;;;;46.80;28.65;;;;;;;;;;5070429;28;20199;-74
2024/03/11 12:04:48;;;;;;;50.60;29.63;;;;;;;;;;5072061;28;20181;-73
2024/03/11 12:07:24;;;;;;;47.13;29.13;;;;;;;;;;5071235;28;20224;-74
2024/03/11 12:09:50;;;;;;;48.10;29.02;;;;;;;;;;5072190;28;20276;-73
2024/03/11 12:12:32;;;;;;;47.88;29.45;;;;;;;;;;5068095;28;20193;-73
2024/03/11 12:14:58;;;;;;;50.00;29.70;;;;;;;;;;5057950;28;20201;-73
2024/03/11 12:17:25;;;;;;;47.67;29.63;;;;;;;;;;5067934;28;20181;-73
2024/03/11 12:22:56;;;;;;;49.60;29.80;;;;;;;;;;5055675;28;20241;-74
2024/03/11 12:25:22;;;;;;;49.22;30.58;;;;;;;;;;5071468;28;20180;-74
2024/03/11 12:27:56;;;;;;;46.60;29.50;;;;;;;;;;5066292;28;20235;-74
2024/03/11 12:30:27;;;;;;;48.03;29.98;;;;;;;;;;5061229;28;20182;-74
2024/03/11 12:33:04;;;;;;;50.28;31.08;;;;;;;;;;5070558;28;20185;-74
2024/03/11 12:35:32;;;;;;;53.50;30.08;;;;;;;;;;5051737;28;20244;-74
2024/03/11 12:37:59;;;;;;;51.40;29.73;;;;;;;;;;5071933;28;20177;-74
2024/03/11 12:40:29;;;;;;;49.08;30.15;;;;;;;;;;5045713;28;20208;-74
2024/03/11 12:42:57;;;;;;;50.47;30.63;;;;;;;;;;5087180;28;20181;-74
2024/03/11 12:45:42;;;;;;;50.58;29.92;;;;;;;;;;5070778;28;20223;-74
2024/03/11 12:48:12;;;;;;;50.35;31.10;;;;;;;;;;5065588;28;20247;-74
2024/03/11 12:50:40;;;;;;;51.83;29.92;;;;;;;;;;5068771;28;20196;-73
2024/03/11 12:53:07;;;;;;;52.75;30.60;;;;;;;;;;5069006;28;20185;-74
2024/03/11 12:55:33;;;;;;;50.38;29.20;;;;;;;;;;5067083;28;20193;-74
2024/03/11 12:58:07;;;;;;;47.05;29.02;;;;;;;;;;5071150;28;20216;-73
2024/03/11 13:00:40;;;;;;;54.42;28.92;;;;;;;;;;5065183;28;20180;-73
2024/03/11 13:03:14;;;;;;;46.00;28.90;;;;;;;;;;5070831;28;20188;-73
2024/03/11 13:06:05;;;;;;;46.53;28.70;;;;;;;;;;5070261;28;20196;-73
2024/03/11 13:08:31;;;;;;;46.83;30.10;;;;;;;;;;5068636;28;20254;-73
2024/03/11 13:11:08;;;;;;;48.92;30.17;;;;;;;;;;5050378;28;20440;-73
2024/03/11 13:13:37;;;;;;;48.38;28.70;;;;;;;;;;5051455;28;20196;-73
2024/03/11 13:16:04;;;;;;;47.92;28.98;;;;;;;;;;5065935;28;20242;-73
2024/03/11 13:18:30;;;;;;;46.88;29.48;;;;;;;;;;5067547;28;20586;-73
2024/03/11 13:20:57;;;;;;;49.53;31.05;;;;;;;;;;5069934;28;20272;-73
2024/03/11 13:23:24;;;;;;;49.25;30.88;;;;;;;;;;5056879;28;20192;-73
2024/03/11 13:25:50;;;;;;;49.80;30.33;;;;;;;;;;5059033;28;20190;-73
2024/03/11 13:28:18;;;;;;;45.20;29.83;;;;;;;;;;5067690;28;20655;-73
2024/03/11 13:30:44;;;;;;;53.22;31.10;;;;;;;;;;5069441;28;20718;-74
2024/03/11 13:33:10;;;;;;;54.85;30.30;;;;;;;;;;5068637;28;20550;-73
2024/03/11 13:35:37;;;;;;;52.28;30.67;;;;;;;;;;5068801;28;20220;-73
2024/03/11 13:38:03;;;;;;;50.50;29.88;;;;;;;;;;5054272;28;20181;-73
2024/03/11 13:40:29;;;;;;;50.85;30.85;;;;;;;;;;5050517;28;20205;-74
2024/03/11 13:42:55;;;;;;;50.88;31.50;;;;;;;;;;5085017;28;20306;-74
2024/03/11 13:45:21;;;;;;;52.47;31.13;;;;;;;;;;5064144;28;20219;-73
2024/03/11 13:47:46;;;;;;;52.92;32.22;;;;;;;;;;5066791;28;20684;-73
2024/03/11 13:50:16;;;;;;;53.58;31.20;;;;;;;;;;5067143;28;20212;-73
2024/03/11 13:52:46;;;;;;;51.97;30.75;;;;;;;;;;5067214;28;20189;-73
2024/03/11 13:55:13;;;;;;;51.50;31.98;;;;;;;;;;5068599;28;20287;-73
2024/03/11 13:57:42;;;;;;;52.15;31.35;;;;;;;;;;5070470;28;20234;-73
2024/03/11 14:00:10;;;;;;;56.33;33.88;;;;;;;;;;5071224;28;20185;-74
2024/03/11 14:02:36;;;;;;;60.45;32.80;;;;;;;;;;5064516;28;20217;-74
2024/03/11 14:05:03;;;;;;;54.97;33.97;;;;;;;;;;5062533;28;20592;-74
2024/03/11 14:07:28;;;;;;;57.28;33.58;;;;;;;;;;5078439;28;20215;-73
2024/03/11 14:09:55;;;;;;;54.50;32.30;;;;;;;;;;5068370;28;20602;-73
2024/03/11 14:12:20;;;;;;;53.50;32.45;;;;;;;;;;5056502;28;20716;-73
2024/03/11 14:14:46;;;;;;;54.70;33.17;;;;;;;;;;5057137;28;20271;-73
2024/03/11 14:17:12;;;;;;;49.17;31.02;;;;;;;;;;5069390;28;20279;-73
2024/03/11 14:19:37;;;;;;;53.72;32.72;;;;;;;;;;5056489;28;20618;-73
2024/03/11 14:22:03;;;;;;;54.38;32.40;;;;;;;;;;5062407;28;20193;-73
2024/03/11 14:24:28;;;;;;;55.15;32.80;;;;;;;;;;5058580;28;20181;-73